Time;durP1;ratioP1;P1;durP2;ratioP2;P2;SDS_P1;SDS_P2;PMS_P1;PMS_P2;Temp;Humidity;BMP_temperature;BMP_pressure;BME280_temperature;BME280_humidity;BME280_pressure;Samples;Min_cycle;Max_cycle;Signal;HPM_P1;HPM_P2
2021/08/22 00:01:13;;;;;;;42.78;8.83;;;;;;;14.55;100.00;100795.95;1684301;83;21014;-40
2021/08/22 00:03:39;;;;;;;41.58;7.30;;;;;;;14.55;100.00;100788.14;1688046;84;20952;-40
2021/08/22 00:06:06;;;;;;;24.85;6.85;;;;;;;14.54;100.00;100793.39;1698945;83;20975;-41
2021/08/22 00:08:35;;;;;;;54.18;8.95;;;;;;;14.50;100.00;100786.10;1680948;85;20943;-40
2021/08/22 00:11:03;;;;;;;30.40;7.35;;;;;;;14.49;100.00;100794.38;1679617;84;21597;-40
2021/08/22 00:13:32;;;;;;;34.33;7.42;;;;;;;14.51;100.00;100796.48;1688004;84;20960;-40
2021/08/22 00:15:59;;;;;;;32.75;6.95;;;;;;;14.48;100.00;100795.28;1655065;86;21008;-41
2021/08/22 00:18:26;;;;;;;31.42;7.37;;;;;;;14.48;100.00;100793.11;1664698;85;21029;-40
2021/08/22 00:20:53;;;;;;;44.55;7.75;;;;;;;14.48;100.00;100799.62;1689097;83;20924;-40
2021/08/22 00:23:19;;;;;;;27.25;6.92;;;;;;;14.46;100.00;100800.11;1671716;85;21052;-41
2021/08/22 00:25:46;;;;;;;33.85;7.35;;;;;;;14.46;100.00;100800.11;1697535;83;21596;-40
2021/08/22 00:28:12;;;;;;;36.35;7.92;;;;;;;14.45;100.00;100806.22;1691299;83;21006;-40
2021/08/22 00:30:38;;;;;;;28.52;6.08;;;;;;;14.43;100.00;100806.28;1672083;85;22180;-40
2021/08/22 00:33:05;;;;;;;36.75;8.05;;;;;;;14.43;100.00;100817.14;1685797;83;20967;-41
2021/08/22 00:35:31;;;;;;;36.70;7.33;;;;;;;14.39;100.00;100813.76;1673490;84;21158;-40
2021/08/22 00:38:00;;;;;;;30.23;6.25;;;;;;;14.35;100.00;100819.95;1683414;83;20947;-41
2021/08/22 00:40:26;;;;;;;33.02;6.70;;;;;;;14.31;100.00;100814.00;1678947;83;21058;-40
2021/08/22 00:42:54;;;;;;;22.65;6.47;;;;;;;14.27;100.00;100817.56;1668506;84;20976;-40
2021/08/22 00:45:21;;;;;;;22.60;5.62;;;;;;;14.25;100.00;100811.55;1713332;82;21023;-40
2021/08/22 00:47:48;;;;;;;16.67;5.65;;;;;;;14.22;100.00;100809.91;1731967;82;21133;-40
2021/08/22 00:50:17;;;;;;;27.30;6.05;;;;;;;14.25;100.00;100817.22;1734265;82;20928;-40
2021/08/22 00:52:44;;;;;;;21.00;5.55;;;;;;;14.25;100.00;100809.41;1713075;82;20976;-40
2021/08/22 00:55:11;;;;;;;19.92;5.08;;;;;;;14.25;100.00;100814.15;1696132;82;20949;-40
2021/08/22 00:57:37;;;;;;;15.25;5.15;;;;;;;14.24;100.00;100809.84;1719313;81;20929;-40
2021/08/22 01:00:12;;;;;;;13.48;5.47;;;;;;;14.25;100.00;100809.41;1713567;82;21921;-40
2021/08/22 01:02:57;;;;;;;13.72;5.17;;;;;;;14.25;100.00;100815.45;1720242;82;21007;-40
2021/08/22 01:05:49;;;;;;;12.50;5.03;;;;;;;14.25;100.00;100815.92;1734057;82;21056;-40
2021/08/22 01:08:26;;;;;;;16.85;5.15;;;;;;;14.23;100.00;100813.34;1727894;82;21485;-40
2021/08/22 01:11:01;;;;;;;14.10;5.30;;;;;;;14.20;100.00;100817.34;1726416;82;21042;-40
2021/08/22 01:13:30;;;;;;;13.45;5.80;;;;;;;14.18;100.00;100817.83;1711226;82;21143;-40
2021/08/22 01:15:57;;;;;;;15.03;4.95;;;;;;;14.15;100.00;100812.72;1728970;81;21581;-40
2021/08/22 01:18:26;;;;;;;12.13;4.92;;;;;;;14.15;100.00;100808.81;1713546;82;21607;-40
2021/08/22 01:21:12;;;;;;;7.25;4.70;;;;;;;14.12;100.00;100808.89;1686379;83;20936;-40
2021/08/22 01:23:57;;;;;;;9.60;4.97;;;;;;;14.10;100.00;100818.03;1735601;81;21012;-40
2021/08/22 01:26:27;;;;;;;20.65;6.50;;;;;;;14.10;100.00;100810.23;1740676;82;21824;-40
2021/08/22 01:28:54;;;;;;;28.85;5.95;;;;;;;14.06;100.00;100819.89;1722478;82;20968;-40
2021/08/22 01:31:27;;;;;;;23.70;6.17;;;;;;;14.07;100.00;100813.78;1719164;82;21003;-40
2021/08/22 01:33:54;;;;;;;21.15;6.00;;;;;;;14.06;100.00;100815.98;1713313;82;21027;-40
2021/08/22 01:36:21;;;;;;;22.10;6.53;;;;;;;14.07;100.00;100818.99;1713862;82;21015;-40
2021/08/22 01:38:49;;;;;;;13.22;4.87;;;;;;;14.08;100.00;100823.73;1700701;84;21067;-40
2021/08/22 01:41:16;;;;;;;10.43;4.87;;;;;;;14.10;100.00;100823.70;1664538;84;21004;-40
2021/08/22 01:43:42;;;;;;;15.38;5.28;;;;;;;14.15;100.00;100823.99;1673688;84;20979;-40
2021/08/22 01:46:09;;;;;;;10.88;4.80;;;;;;;14.19;100.00;100816.94;1727598;82;22143;-40
2021/08/22 01:48:36;;;;;;;18.15;5.75;;;;;;;14.21;100.00;100812.10;1727010;82;21521;-40
2021/08/22 01:51:03;;;;;;;20.25;5.28;;;;;;;14.21;100.00;100821.65;1681022;83;21324;-40
2021/08/22 01:53:30;;;;;;;26.80;5.80;;;;;;;14.20;100.00;100827.31;1710745;82;20972;-40
2021/08/22 01:55:56;;;;;;;28.73;6.72;;;;;;;14.21;100.00;100826.85;1710216;82;20984;-40
2021/08/22 01:58:24;;;;;;;27.37;5.50;;;;;;;14.22;100.00;100819.02;1678466;84;20948;-40
2021/08/22 02:00:51;;;;;;;28.90;5.55;;;;;;;14.25;100.00;100821.13;1665978;84;21075;-40
2021/08/22 02:03:45;;;;;;;13.20;5.00;;;;;;;14.31;100.00;100820.94;1651116;85;21150;-40
2021/08/22 02:06:18;;;;;;;22.13;5.80;;;;;;;14.35;100.00;100828.63;1649091;85;21016;-40
2021/08/22 02:08:45;;;;;;;10.72;5.30;;;;;;;14.36;100.00;100826.44;1659306;85;22194;-40
2021/08/22 02:11:20;;;;;;;14.20;5.50;;;;;;;14.37;100.00;100828.14;1685554;84;21636;-40
2021/08/22 02:13:48;;;;;;;12.20;5.70;;;;;;;14.38;100.00;100826.38;1691174;84;21047;-40
2021/08/22 02:16:19;;;;;;;19.40;6.08;;;;;;;14.39;100.00;100825.94;1701618;83;21073;-40
2021/08/22 02:18:46;;;;;;;28.35;7.28;;;;;;;14.35;100.00;100823.86;1674863;84;20999;-40
2021/08/22 02:21:13;;;;;;;23.95;6.05;;;;;;;14.33;100.00;100823.92;1649190;85;21609;-40
2021/08/22 02:23:39;;;;;;;33.58;7.05;;;;;;;14.33;100.00;100822.62;1694999;83;21028;-40
2021/08/22 02:26:06;;;;;;;21.73;6.53;;;;;;;14.32;100.00;100817.44;1699919;84;21019;-40
2021/08/22 02:28:33;;;;;;;8.63;5.50;;;;;;;14.33;100.00;100820.02;1699276;84;21096;-40
2021/08/22 02:31:00;;;;;;;13.00;6.25;;;;;;;14.32;100.00;100831.33;1700072;83;21098;-39
2021/08/22 02:33:26;;;;;;;13.75;6.35;;;;;;;14.28;100.00;100825.81;1682094;84;20991;-40
2021/08/22 02:35:53;;;;;;;21.45;5.58;;;;;;;14.24;100.00;100830.67;1672182;84;21018;-40
2021/08/22 02:38:20;;;;;;;17.55;5.45;;;;;;;14.20;100.00;100832.95;1710744;82;20993;-39
2021/08/22 02:40:48;;;;;;;17.62;5.70;;;;;;;14.17;100.00;100842.16;1706501;82;21287;-39
2021/08/22 02:43:14;;;;;;;16.48;6.17;;;;;;;14.12;100.00;100841.44;1691094;84;21528;-39
2021/08/22 02:45:41;;;;;;;46.15;9.05;;;;;;;14.14;100.00;100843.08;1695964;83;21556;-39
2021/08/22 02:48:08;;;;;;;69.25;10.23;;;;;;;14.20;100.00;100841.64;1691889;83;21591;-40
2021/08/22 02:50:34;;;;;;;168.22;15.70;;;;;;;14.27;100.00;100834.48;1691866;83;22202;-40
2021/08/22 02:53:01;;;;;;;113.75;12.75;;;;;;;14.35;100.00;100838.19;1690530;83;21159;-40
2021/08/22 02:55:27;;;;;;;79.58;10.72;;;;;;;14.41;100.00;100838.47;1664975;84;21016;-39
2021/08/22 02:57:54;;;;;;;53.25;8.78;;;;;;;14.44;100.00;100835.77;1678492;83;20982;-40
2021/08/22 03:00:20;;;;;;;24.95;6.05;;;;;;;14.50;100.00;100839.06;1691991;83;20947;-40
2021/08/22 03:02:47;;;;;;;18.67;5.37;;;;;;;14.60;100.00;100837.48;1712069;82;21021;-40
2021/08/22 03:05:13;;;;;;;5.25;4.75;;;;;;;14.69;100.00;100843.74;1709812;83;21143;-39
2021/08/22 03:07:40;;;;;;;22.58;5.40;;;;;;;14.73;100.00;100845.82;1697620;83;20935;-40
2021/08/22 03:10:07;;;;;;;11.65;5.70;;;;;;;14.73;100.00;100850.59;1706943;82;21034;-40
2021/08/22 03:12:34;;;;;;;15.43;5.65;;;;;;;14.82;100.00;100846.00;1682502;83;21558;-40
2021/08/22 03:15:01;;;;;;;10.00;6.20;;;;;;;14.92;100.00;100843.08;1673466;85;21050;-40
2021/08/22 03:17:27;;;;;;;15.88;5.20;;;;;;;15.04;100.00;100846.22;1690775;83;21274;-40
2021/08/22 03:19:55;;;;;;;12.78;4.85;;;;;;;15.11;100.00;100851.64;1702241;83;20978;-40
2021/08/22 03:22:23;;;;;;;8.98;5.60;;;;;;;15.25;100.00;100860.77;1720013;82;21018;-40
2021/08/22 03:24:50;;;;;;;13.08;5.62;;;;;;;15.32;100.00;100857.09;1709214;82;20951;-40
2021/08/22 03:27:16;;;;;;;7.30;5.60;;;;;;;15.39;100.00;100858.58;1701194;83;21508;-40
2021/08/22 03:29:43;;;;;;;13.68;5.65;;;;;;;15.44;100.00;100850.63;1719389;82;21797;-40
2021/08/22 03:32:09;;;;;;;13.53;5.92;;;;;;;15.51;100.00;100857.34;1700741;83;22219;-40
2021/08/22 03:34:36;;;;;;;19.92;7.17;;;;;;;15.54;100.00;100854.63;1698787;83;20946;-40
2021/08/22 03:37:04;;;;;;;9.45;6.45;;;;;;;15.57;100.00;100860.20;1708841;83;22229;-40
2021/08/22 03:39:30;;;;;;;14.40;6.42;;;;;;;15.63;100.00;100857.38;1700442;83;21544;-40
2021/08/22 03:41:57;;;;;;;6.30;5.55;;;;;;;15.69;100.00;100861.08;1718665;82;22133;-40
2021/08/22 03:44:23;;;;;;;11.55;6.10;;;;;;;15.75;100.00;100860.87;1698660;82;20943;-40
2021/08/22 03:46:50;;;;;;;9.43;5.12;;;;;;;15.85;100.00;100863.19;1691770;83;20999;-40
2021/08/22 03:49:17;;;;;;;7.87;4.90;;;;;;;15.91;100.00;100870.84;1706055;83;21002;-40
2021/08/22 03:51:43;;;;;;;6.20;5.45;;;;;;;15.98;100.00;100862.34;1719339;82;21027;-40
2021/08/22 03:54:11;;;;;;;10.25;5.17;;;;;;;16.01;100.00;100868.30;1685854;84;23168;-40
2021/08/22 03:56:39;;;;;;;10.40;4.90;;;;;;;16.09;100.00;100870.20;1664895;84;20963;-40
2021/08/22 03:59:09;;;;;;;7.85;4.78;;;;;;;16.19;100.00;100864.65;1693301;83;21610;-40
2021/08/22 04:01:37;;;;;;;6.08;5.40;;;;;;;16.31;100.00;100868.14;1691462;83;20974;-40
2021/08/22 04:04:06;;;;;;;7.05;4.70;;;;;;;16.42;100.00;100866.45;1690696;83;20970;-40
2021/08/22 04:06:36;;;;;;;6.42;5.10;;;;;;;16.56;100.00;100868.56;1660225;85;22418;-41
2021/08/22 04:09:04;;;;;;;5.92;4.65;;;;;;;16.68;100.00;100871.17;1669012;84;20964;-40
2021/08/22 04:11:30;;;;;;;10.90;5.75;;;;;;;16.81;100.00;100868.95;1650247;86;21118;-41
2021/08/22 04:13:57;;;;;;;9.75;5.22;;;;;;;16.96;100.00;100876.66;1675296;84;20972;-41
2021/08/22 04:16:24;;;;;;;6.97;5.03;;;;;;;17.13;100.00;100868.17;1657815;84;22250;-41
2021/08/22 04:18:50;;;;;;;11.05;4.83;;;;;;;17.30;100.00;100867.94;1672450;84;21004;-41
2021/08/22 04:21:17;;;;;;;9.45;5.20;;;;;;;17.49;100.00;100870.22;1672630;84;21040;-42
2021/08/22 04:23:44;;;;;;;18.05;6.70;;;;;;;17.65;100.00;100864.36;1704809;82;21050;-41
2021/08/22 04:26:10;;;;;;;8.53;5.30;;;;;;;17.83;100.00;100864.03;1708742;83;20939;-41
2021/08/22 04:28:37;;;;;;;17.15;4.90;;;;;;;18.04;100.00;100860.98;1692552;83;20976;-41
2021/08/22 04:31:04;;;;;;;16.67;5.30;;;;;;;18.23;100.00;100867.59;1687790;84;21042;-41
2021/08/22 04:33:30;;;;;;;7.62;5.67;;;;;;;18.37;100.00;100872.22;1697381;83;20971;-41
2021/08/22 04:35:57;;;;;;;6.45;5.08;;;;;;;18.51;99.82;100865.48;1671655;84;21021;-41
2021/08/22 04:38:23;;;;;;;8.63;4.95;;;;;;;18.64;97.16;100874.95;1704986;83;20999;-41
2021/08/22 04:40:50;;;;;;;8.35;4.70;;;;;;;18.73;95.93;100865.38;1659374;84;20990;-41
2021/08/22 04:43:16;;;;;;;7.75;5.40;;;;;;;18.87;94.07;100872.59;1728837;82;21191;-41
2021/08/22 04:45:43;;;;;;;9.38;4.58;;;;;;;18.95;90.86;100870.45;1712939;82;20972;-41
2021/08/22 04:48:09;;;;;;;9.38;5.25;;;;;;;19.05;89.85;100863.48;1724647;82;21039;-41
2021/08/22 04:50:35;;;;;;;8.20;5.45;;;;;;;19.18;89.08;100868.98;1685228;82;21073;-41
2021/08/22 04:53:03;;;;;;;8.70;5.40;;;;;;;19.23;87.19;100865.23;1715421;82;21011;-41
2021/08/22 04:55:29;;;;;;;14.50;5.10;;;;;;;19.34;86.55;100872.58;1722708;82;21068;-41
2021/08/22 04:57:56;;;;;;;5.17;4.70;;;;;;;19.49;85.53;100877.54;1689089;84;20928;-42
2021/08/22 05:00:22;;;;;;;5.60;5.00;;;;;;;19.59;84.44;100889.75;1728406;82;20928;-42
2021/08/22 05:02:49;;;;;;;17.60;5.53;;;;;;;19.64;83.14;100886.42;1729263;82;20976;-41
2021/08/22 05:05:15;;;;;;;10.35;5.60;;;;;;;19.64;82.62;100883.80;1735142;81;20988;-41
2021/08/22 05:07:42;;;;;;;9.88;5.70;;;;;;;19.68;80.60;100884.03;1720922;81;21164;-41
2021/08/22 05:10:10;;;;;;;13.18;5.45;;;;;;;19.70;80.61;100893.16;1732999;82;21082;-41
2021/08/22 05:12:37;;;;;;;10.80;5.80;;;;;;;19.67;79.18;100886.75;1722647;82;20928;-41
2021/08/22 05:15:07;;;;;;;9.83;5.58;;;;;;;19.65;80.15;100889.44;1731422;82;21633;-41
2021/08/22 05:17:33;;;;;;;11.33;5.85;;;;;;;19.70;80.21;100899.72;1727390;82;20980;-41
2021/08/22 05:20:01;;;;;;;10.03;5.62;;;;;;;19.78;80.29;100901.49;1722070;82;20968;-41
2021/08/22 05:22:27;;;;;;;15.18;6.40;;;;;;;19.90;78.81;100902.65;1698619;82;21019;-41
2021/08/22 05:24:56;;;;;;;13.32;6.10;;;;;;;19.95;78.17;100897.20;1740828;82;20885;-41
2021/08/22 05:27:22;;;;;;;21.50;6.65;;;;;;;19.98;75.93;100906.23;1737418;82;20976;-41
2021/08/22 05:29:48;;;;;;;12.30;6.10;;;;;;;19.93;76.03;100909.57;1716437;82;20893;-41
2021/08/22 05:32:15;;;;;;;18.25;6.30;;;;;;;19.85;75.39;100910.40;1726585;82;21056;-41
2021/08/22 05:34:41;;;;;;;15.05;6.55;;;;;;;19.70;73.72;100911.54;1728742;82;21039;-41
2021/08/22 05:37:08;;;;;;;19.67;6.92;;;;;;;19.50;72.60;100909.42;1706438;82;20940;-41
2021/08/22 05:39:35;;;;;;;12.07;6.92;;;;;;;19.43;74.55;100909.34;1721692;82;20964;-42
2021/08/22 05:42:03;;;;;;;10.60;6.60;;;;;;;19.31;73.13;100922.59;1730717;82;20968;-41
2021/08/22 05:44:31;;;;;;;16.10;7.30;;;;;;;19.17;73.27;100913.20;1735438;82;21144;-41
2021/08/22 05:46:57;;;;;;;18.82;7.20;;;;;;;19.09;74.97;100905.72;1718304;82;21490;-41
2021/08/22 05:49:24;;;;;;;22.85;7.80;;;;;;;19.04;75.19;100912.94;1729732;82;20969;-41
2021/08/22 05:51:52;;;;;;;13.20;6.35;;;;;;;19.06;76.26;100915.02;1717269;82;21074;-41
2021/08/22 05:54:18;;;;;;;11.10;6.58;;;;;;;19.06;76.25;100918.52;1716997;82;20988;-41
2021/08/22 05:56:45;;;;;;;10.43;6.37;;;;;;;19.06;76.12;100922.89;1713787;82;21094;-41
2021/08/22 05:59:12;;;;;;;7.33;6.60;;;;;;;19.05;76.27;100921.20;1679233;84;20991;-41
2021/08/22 06:01:38;;;;;;;11.40;6.53;;;;;;;19.07;76.66;100910.16;1697319;82;21015;-41
2021/08/22 06:04:04;;;;;;;9.78;6.87;;;;;;;19.06;75.21;100912.41;1740416;81;21284;-41
2021/08/22 06:06:31;;;;;;;10.00;5.97;;;;;;;19.07;76.64;100915.41;1734036;82;21043;-41
2021/08/22 06:08:58;;;;;;;11.70;6.90;;;;;;;19.12;75.73;100910.83;1713542;82;21113;-41
2021/08/22 06:11:25;;;;;;;7.25;6.17;;;;;;;19.14;75.53;100919.47;1735031;82;21031;-41
2021/08/22 06:13:51;;;;;;;22.73;7.10;;;;;;;19.18;76.05;100918.39;1733944;82;20980;-41
2021/08/22 06:16:18;;;;;;;25.15;7.17;;;;;;;19.27;75.98;100919.73;1708528;82;20952;-41
2021/08/22 06:18:45;;;;;;;30.97;7.70;;;;;;;19.37;75.95;100917.52;1716502;82;21035;-41
2021/08/22 06:21:11;;;;;;;23.07;6.45;;;;;;;19.51;75.52;100921.63;1679450;84;21118;-41
2021/08/22 06:23:38;;;;;;;18.05;6.53;;;;;;;19.59;74.29;100921.26;1717322;82;20940;-41
2021/08/22 06:26:04;;;;;;;23.47;6.45;;;;;;;19.72;74.19;100920.19;1721673;82;20999;-41
2021/08/22 06:28:31;;;;;;;22.25;6.75;;;;;;;19.88;73.38;100933.41;1730716;82;20971;-41
2021/08/22 06:30:57;;;;;;;15.93;6.58;;;;;;;20.01;73.05;100927.58;1727277;82;21012;-41
2021/08/22 06:33:23;;;;;;;8.45;6.00;;;;;;;20.17;72.06;100927.16;1714486;82;21097;-41
2021/08/22 06:35:51;;;;;;;6.42;5.78;;;;;;;20.32;70.89;100928.14;1728754;82;20952;-41
2021/08/22 06:38:18;;;;;;;6.45;5.65;;;;;;;20.50;71.24;100932.05;1704343;82;20985;-41
2021/08/22 06:40:44;;;;;;;16.45;6.65;;;;;;;20.64;70.45;100934.81;1713797;81;20972;-41
2021/08/22 06:43:10;;;;;;;30.77;7.37;;;;;;;20.72;69.44;100940.98;1686721;84;20985;-41
2021/08/22 06:45:37;;;;;;;8.38;5.87;;;;;;;20.68;68.78;100944.69;1687281;84;21093;-41
2021/08/22 06:48:05;;;;;;;7.42;5.65;;;;;;;20.64;67.33;100936.13;1671324;83;21007;-40
2021/08/22 06:50:31;;;;;;;10.85;5.80;;;;;;;20.64;67.32;100939.21;1679607;84;21641;-41
2021/08/22 06:52:58;;;;;;;12.98;5.62;;;;;;;20.68;66.46;100941.61;1681046;84;21477;-42
2021/08/22 06:55:25;;;;;;;15.28;6.40;;;;;;;20.77;67.22;100947.30;1691855;84;21015;-42
2021/08/22 06:57:51;;;;;;;12.70;5.75;;;;;;;20.90;67.97;100939.17;1684849;84;21053;-42
2021/08/22 07:00:18;;;;;;;12.55;5.65;;;;;;;21.06;66.09;100938.31;1678921;84;20999;-41
2021/08/22 07:02:45;;;;;;;21.10;6.65;;;;;;;21.25;66.69;100944.26;1672731;84;21051;-41
2021/08/22 07:05:12;;;;;;;9.28;5.67;;;;;;;21.44;66.01;100941.91;1666650;84;21584;-41
2021/08/22 07:07:39;;;;;;;6.53;4.75;;;;;;;21.61;64.84;100938.31;1678475;84;21000;-42
2021/08/22 07:10:07;;;;;;;13.00;5.55;;;;;;;21.84;64.85;100944.07;1672366;84;21432;-41
2021/08/22 07:12:34;;;;;;;7.70;4.70;;;;;;;22.10;64.88;100949.14;1656325;84;21053;-42
2021/08/22 07:15:01;;;;;;;27.82;6.83;;;;;;;22.33;64.08;100942.09;1683507;83;21032;-42
2021/08/22 07:17:27;;;;;;;9.13;5.33;;;;;;;22.57;62.36;100949.00;1672322;84;21039;-42
2021/08/22 07:19:54;;;;;;;18.15;5.22;;;;;;;22.71;60.81;100946.82;1667054;84;21008;-42
2021/08/22 07:22:20;;;;;;;11.93;5.05;;;;;;;22.74;61.08;100944.48;1667523;84;21140;-42
2021/08/22 07:24:47;;;;;;;11.08;5.60;;;;;;;22.72;60.10;100946.37;1689873;84;20971;-42
2021/08/22 07:27:13;;;;;;;8.85;4.92;;;;;;;22.58;59.19;100954.65;1656056;84;21001;-42
2021/08/22 07:29:42;;;;;;;7.80;4.65;;;;;;;22.41;59.69;100952.18;1684470;84;21063;-41
2021/08/22 07:32:08;;;;;;;7.55;4.80;;;;;;;22.32;59.59;100953.09;1686286;84;21734;-41
2021/08/22 07:34:34;;;;;;;10.10;5.05;;;;;;;22.31;60.82;100955.84;1657893;84;21781;-41
2021/08/22 07:37:01;;;;;;;13.18;5.40;;;;;;;22.45;60.70;100955.00;1677975;84;21015;-42
2021/08/22 07:39:27;;;;;;;18.10;5.10;;;;;;;22.68;59.82;100962.84;1694216;83;21027;-42
2021/08/22 07:41:54;;;;;;;7.47;5.10;;;;;;;22.90;60.07;100962.37;1687803;83;20984;-42
2021/08/22 07:44:21;;;;;;;8.53;4.90;;;;;;;23.13;59.04;100961.86;1675790;85;21004;-41
2021/08/22 07:46:48;;;;;;;10.60;5.22;;;;;;;23.33;56.84;100962.78;1673366;85;21134;-41
2021/08/22 07:49:19;;;;;;;13.10;5.55;;;;;;;23.57;57.39;100959.95;1680344;84;20979;-42
2021/08/22 07:51:47;;;;;;;6.80;4.92;;;;;;;23.68;56.04;100954.83;1680416;85;21004;-42
2021/08/22 07:54:14;;;;;;;11.18;4.97;;;;;;;23.85;57.49;100954.16;1649752;85;21063;-42
2021/08/22 07:56:41;;;;;;;14.87;5.40;;;;;;;24.03;56.23;100956.09;1650613;85;21051;-43
2021/08/22 07:59:08;;;;;;;12.53;5.15;;;;;;;24.26;54.63;100962.45;1661222;85;21015;-42
2021/08/22 08:01:34;;;;;;;6.60;4.78;;;;;;;24.48;53.11;100957.83;1670616;85;21012;-42
2021/08/22 08:04:01;;;;;;;9.18;4.92;;;;;;;24.71;54.40;100958.52;1673348;85;21016;-42
2021/08/22 08:06:28;;;;;;;5.42;4.40;;;;;;;24.85;52.03;100958.39;1682303;85;21534;-42
2021/08/22 08:08:54;;;;;;;5.22;4.28;;;;;;;24.85;53.45;100958.39;1682825;85;21553;-41
2021/08/22 08:11:21;;;;;;;13.90;4.78;;;;;;;25.08;54.78;100954.58;1647760;85;21855;-42
2021/08/22 08:13:48;;;;;;;8.78;4.47;;;;;;;25.31;52.89;100956.04;1674237;85;21609;-42
2021/08/22 08:16:14;;;;;;;14.83;5.17;;;;;;;25.40;51.52;100948.76;1675474;85;21047;-42
2021/08/22 08:18:40;;;;;;;11.00;4.75;;;;;;;25.22;51.07;100954.91;1661053;85;21526;-42
2021/08/22 08:21:07;;;;;;;7.28;4.92;;;;;;;25.28;50.19;100950.97;1720694;81;22124;-42
2021/08/22 08:23:33;;;;;;;11.97;4.50;;;;;;;25.39;51.95;100948.39;1677485;84;21604;-42
2021/08/22 08:25:59;;;;;;;15.05;4.95;;;;;;;25.67;51.85;100947.70;1676111;84;21193;-41
2021/08/22 08:28:26;;;;;;;8.23;5.12;;;;;;;25.81;51.38;100945.33;1679005;84;21004;-41
2021/08/22 08:30:52;;;;;;;46.25;7.05;;;;;;;25.92;51.31;100944.52;1686707;84;21023;-42
2021/08/22 08:33:19;;;;;;;8.65;4.95;;;;;;;26.08;50.96;100943.69;1680686;84;20987;-41
2021/08/22 08:35:45;;;;;;;15.48;4.58;;;;;;;26.22;49.12;100940.50;1676827;84;21116;-41
2021/08/22 08:38:12;;;;;;;6.12;4.47;;;;;;;26.47;49.56;100945.22;1684907;84;21300;-40
2021/08/22 08:40:40;;;;;;;5.70;4.03;;;;;;;26.76;48.47;100943.39;1679851;84;21007;-43
2021/08/22 08:43:09;;;;;;;5.75;3.98;;;;;;;27.02;48.06;100941.81;1681189;84;20955;-40
2021/08/22 08:45:59;;;;;;;6.22;4.05;;;;;;;27.31;46.02;100935.93;1670154;85;21657;-41
2021/08/22 08:48:57;;;;;;;12.18;4.67;;;;;;;27.46;46.14;100936.00;1668323;84;21035;-42
2021/08/22 08:51:47;;;;;;;11.43;4.12;;;;;;;27.60;45.08;100939.34;1688584;84;21051;-41
2021/08/22 08:54:37;;;;;;;6.28;4.35;;;;;;;27.49;44.86;100938.41;1662114;85;21579;-41
2021/08/22 08:57:06;;;;;;;3.83;3.40;;;;;;;27.36;46.28;100944.36;1684916;84;21007;-41
2021/08/22 08:59:37;;;;;;;5.75;3.92;;;;;;;27.63;44.80;100942.60;1648359;85;21594;-41
2021/08/22 09:02:04;;;;;;;5.67;4.40;;;;;;;27.71;46.95;100941.11;1681692;84;21014;-41
2021/08/22 09:05:06;;;;;;;5.42;3.30;;;;;;;27.70;42.97;100938.09;1684955;84;21636;-41
2021/08/22 09:08:06;;;;;;;5.58;3.83;;;;;;;27.47;43.62;100940.82;1601968;89;21630;-42
2021/08/22 09:11:14;;;;;;;7.05;4.30;;;;;;;27.43;44.70;100942.91;1629564;87;21118;-40
2021/08/22 09:14:36;;;;;;;5.03;4.00;;;;;;;27.53;44.69;100942.52;1659883;85;21028;-42
2021/08/22 09:18:00;;;;;;;4.47;4.08;;;;;;;27.93;43.78;100936.17;1672932;83;21157;-42
2021/08/22 09:21:08;;;;;;;4.58;3.70;;;;;;;27.89;44.40;100940.89;1601896;88;21139;-41
2021/08/22 09:24:06;;;;;;;6.45;3.70;;;;;;;27.61;44.84;100939.23;1630024;87;21136;-41
2021/08/22 09:27:21;;;;;;;4.80;3.15;;;;;;;27.51;44.12;100942.28;1651388;83;21031;-40
2021/08/22 09:30:38;;;;;;;2.90;2.70;;;;;;;27.13;45.36;100943.60;1641318;84;21199;-42
2021/08/22 09:33:46;;;;;;;2.70;2.52;;;;;;;26.71;45.98;100940.27;1668470;85;21088;-40
2021/08/22 09:36:40;;;;;;;3.85;2.95;;;;;;;26.92;44.90;100949.20;1658464;85;21067;-41
2021/08/22 09:39:48;;;;;;;5.50;3.17;;;;;;;27.15;47.01;100941.16;1635086;86;21019;-40
2021/08/22 09:43:11;;;;;;;3.10;2.90;;;;;;;27.28;45.28;100944.16;1656086;85;21000;-41
2021/08/22 09:46:21;;;;;;;5.37;3.08;;;;;;;27.61;44.52;100940.56;1690942;83;21022;-41
2021/08/22 09:49:31;;;;;;;4.05;3.58;;;;;;;27.85;43.47;100934.63;1671667;85;21501;-42
2021/08/22 09:52:26;;;;;;;3.42;3.15;;;;;;;27.53;44.58;100945.17;1686025;84;21042;-41
2021/08/22 09:55:23;;;;;;;10.00;3.23;;;;;;;27.24;45.16;100944.88;1693976;83;21018;-41
2021/08/22 09:58:36;;;;;;;2.85;2.65;;;;;;;27.24;45.06;100939.57;1675781;84;20976;-41
2021/08/22 10:01:41;;;;;;;6.70;3.67;;;;;;;27.35;44.18;100948.84;1667500;85;20988;-41
2021/08/22 10:04:46;;;;;;;12.50;3.27;;;;;;;27.04;45.37;100951.36;1637923;85;21092;-41
2021/08/22 10:07:41;;;;;;;20.75;3.90;;;;;;;27.27;46.61;100939.31;1662933;85;20940;-41
2021/08/22 10:10:22;;;;;;;5.62;3.20;;;;;;;27.85;45.67;100939.47;1614977;86;21041;-42
2021/08/22 10:12:48;;;;;;;12.85;3.33;;;;;;;28.29;46.01;100941.98;1662129;85;22329;-41
2021/08/22 10:15:22;;;;;;;9.65;2.98;;;;;;;28.49;43.69;100940.74;1667603;84;21765;-42
2021/08/22 10:17:49;;;;;;;5.00;3.08;;;;;;;28.19;42.66;100946.42;1702262;83;21197;-42
2021/08/22 10:20:17;;;;;;;5.85;3.50;;;;;;;27.72;43.43;100944.98;1684338;84;21595;-41
2021/08/22 10:22:45;;;;;;;6.00;2.87;;;;;;;27.71;43.02;100944.63;1671889;83;20984;-40
2021/08/22 10:25:17;;;;;;;5.62;2.42;;;;;;;27.50;43.92;100950.72;1667543;83;21030;-40
2021/08/22 10:27:48;;;;;;;5.30;2.58;;;;;;;27.60;45.80;100949.98;1679795;84;21059;-41
2021/08/22 10:30:19;;;;;;;2.55;2.45;;;;;;;27.87;43.67;100956.61;1661115;85;22141;-42
2021/08/22 10:33:05;;;;;;;6.33;2.50;;;;;;;27.97;41.89;100950.89;1695393;82;21663;-41
2021/08/22 10:35:35;;;;;;;6.72;2.50;;;;;;;28.22;42.80;100954.14;1686587;83;21051;-42
2021/08/22 10:38:23;;;;;;;11.03;3.02;;;;;;;28.65;39.71;100946.39;1695552;83;21037;-42
2021/08/22 10:40:51;;;;;;;23.35;3.72;;;;;;;28.67;40.83;100946.27;1690117;84;21067;-41
2021/08/22 10:43:26;;;;;;;21.62;3.12;;;;;;;28.22;39.43;100951.48;1649185;84;21778;-42
2021/08/22 10:45:53;;;;;;;42.05;4.40;;;;;;;27.90;41.06;100948.37;1723233;82;20928;-41
2021/08/22 10:48:29;;;;;;;47.88;5.92;;;;;;;27.74;45.12;100953.67;1736323;82;21023;-41
2021/08/22 10:51:08;;;;;;;40.12;5.08;;;;;;;27.54;47.01;100948.19;1731687;82;20940;-41
2021/08/22 10:53:43;;;;;;;24.50;4.67;;;;;;;27.48;49.09;100948.67;1700670;83;20975;-42
2021/08/22 10:59:08;;;;;;;34.58;4.60;;;;;;;27.39;48.93;100948.09;1801573;79;22246;-43
2021/08/22 11:01:42;;;;;;;33.65;4.55;;;;;;;27.07;49.80;100951.58;1756015;80;21953;-42
2021/08/22 11:04:17;;;;;;;28.52;4.62;;;;;;;27.01;49.41;100952.08;1772728;80;22395;-41
2021/08/22 11:07:03;;;;;;;17.00;4.47;;;;;;;27.02;50.97;100953.27;1750550;80;21505;-42
2021/08/22 11:09:36;;;;;;;23.38;4.50;;;;;;;26.93;51.84;100954.02;1759348;80;20919;-42
2021/08/22 11:12:23;;;;;;;15.38;3.90;;;;;;;27.00;51.90;100949.89;1758477;80;21501;-42
2021/08/22 11:14:49;;;;;;;42.80;6.95;;;;;;;27.02;51.23;100955.09;1763877;80;21567;-41
2021/08/22 11:17:16;;;;;;;18.90;4.15;;;;;;;27.05;51.76;100950.39;1769727;80;22679;-45
2021/08/22 11:19:43;;;;;;;27.50;4.67;;;;;;;27.02;52.02;100956.42;1756722;80;21059;-41
2021/08/22 11:22:26;;;;;;;35.78;5.20;;;;;;;27.09;50.94;100956.28;1744902;81;21074;-42
2021/08/22 11:24:56;;;;;;;11.12;3.40;;;;;;;27.12;51.30;100961.34;1754160;80;21451;-41
2021/08/22 11:27:25;;;;;;;3.60;3.25;;;;;;;27.16;51.78;100960.14;1763005;80;21003;-42
2021/08/22 11:30:01;;;;;;;3.40;2.80;;;;;;;27.23;50.51;100965.78;1758601;80;21103;-42
2021/08/22 11:32:28;;;;;;;5.55;3.22;;;;;;;27.30;48.17;100963.47;1760046;80;20952;-42
2021/08/22 11:34:55;;;;;;;3.67;3.15;;;;;;;27.19;48.15;100967.86;1757363;80;20979;-40
2021/08/22 11:37:23;;;;;;;3.62;3.00;;;;;;;27.32;48.70;100968.17;1756654;80;20952;-43
2021/08/22 11:39:49;;;;;;;3.85;3.00;;;;;;;27.57;48.03;100963.52;1762361;81;21035;-41